createdAt,value
2018-04-09T00:01:17.293Z,12.63
2018-04-09T00:03:43.253Z,12.45
2018-04-09T00:06:09.192Z,12.33
2018-04-09T00:08:35.139Z,12.56
2018-04-09T00:11:01.065Z,12.20
2018-04-09T00:13:27.005Z,12.10
2018-04-09T00:15:52.982Z,12.07
2018-04-09T00:18:18.907Z,12.16
2018-04-09T00:20:44.880Z,12.15
2018-04-09T00:23:10.818Z,11.96
2018-04-09T00:25:36.790Z,12.28
2018-04-09T00:28:02.738Z,12.10
2018-04-09T00:30:28.685Z,12.00
2018-04-09T00:32:54.629Z,11.69
2018-04-09T00:35:20.605Z,11.70
2018-04-09T00:37:46.530Z,11.63
2018-04-09T00:40:12.652Z,12.00
2018-04-09T00:42:38.585Z,11.95
2018-04-09T00:45:04.522Z,12.12
2018-04-09T00:47:30.434Z,12.02
2018-04-09T00:49:56.400Z,12.31
2018-04-09T00:52:22.344Z,12.15
2018-04-09T00:54:48.266Z,12.05
2018-04-09T00:57:14.206Z,12.11
2018-04-09T00:59:40.364Z,12.29
2018-04-09T01:02:06.294Z,12.39
2018-04-09T01:04:32.241Z,12.15
2018-04-09T01:06:58.166Z,12.17
2018-04-09T01:09:24.118Z,11.69
2018-04-09T01:11:50.078Z,11.96
2018-04-09T01:14:16.028Z,11.85
2018-04-09T01:16:42.003Z,12.04
2018-04-09T01:19:07.952Z,12.19
2018-04-09T01:21:33.902Z,12.04
2018-04-09T01:23:59.861Z,12.09
2018-04-09T01:26:25.812Z,11.99
2018-04-09T01:28:51.766Z,12.04
2018-04-09T01:31:17.760Z,12.09
2018-04-09T01:33:43.707Z,11.76
2018-04-09T01:36:09.712Z,11.53
2018-04-09T01:38:35.647Z,11.86
2018-04-09T01:41:01.607Z,11.97
2018-04-09T01:43:27.541Z,11.84
2018-04-09T01:45:53.695Z,11.88
2018-04-09T01:48:19.627Z,11.71
2018-04-09T01:50:45.551Z,11.77
2018-04-09T01:53:11.497Z,11.74
2018-04-09T01:55:37.447Z,11.79
2018-04-09T01:58:03.376Z,11.42
2018-04-09T02:00:29.433Z,11.57
2018-04-09T02:02:55.417Z,11.54
2018-04-09T02:05:21.361Z,11.80
2018-04-09T02:07:47.334Z,11.40
2018-04-09T02:10:13.285Z,11.73
2018-04-09T02:12:39.258Z,11.91
2018-04-09T02:15:05.191Z,11.72
2018-04-09T02:17:31.153Z,10.94
2018-04-09T02:19:57.075Z,11.39
2018-04-09T02:22:23.035Z,11.33
2018-04-09T02:24:48.953Z,11.20
2018-04-09T02:27:14.898Z,11.27
2018-04-09T02:29:40.837Z,11.16
2018-04-09T02:32:06.790Z,11.37
2018-04-09T02:34:32.734Z,11.34
2018-04-09T02:36:58.856Z,10.94
2018-04-09T02:39:24.787Z,10.83
2018-04-09T02:41:50.743Z,10.78
2018-04-09T02:44:16.694Z,11.09
2018-04-09T02:46:42.638Z,10.94
2018-04-09T02:49:08.568Z,11.26
2018-04-09T02:51:34.485Z,11.00
2018-04-09T02:54:00.425Z,11.20
2018-04-09T02:56:26.382Z,10.73
2018-04-09T02:58:52.354Z,11.03
2018-04-09T03:01:18.285Z,10.88
2018-04-09T03:03:44.239Z,10.96
2018-04-09T03:06:10.198Z,11.15
2018-04-09T03:08:36.130Z,11.32
2018-04-09T03:11:02.048Z,11.00
2018-04-09T03:13:27.986Z,10.88
2018-04-09T03:15:53.924Z,10.85
2018-04-09T03:18:19.873Z,10.81
2018-04-09T03:20:45.831Z,10.72
2018-04-09T03:23:11.783Z,10.98
2018-04-09T03:25:37.769Z,10.96
2018-04-09T03:28:03.734Z,10.86
2018-04-09T03:30:29.679Z,10.66
2018-04-09T03:32:55.636Z,10.70
2018-04-09T03:35:21.593Z,10.66
2018-04-09T03:37:47.556Z,10.54
2018-04-09T03:40:13.506Z,10.79
2018-04-09T03:42:39.670Z,10.96
2018-04-09T03:45:05.606Z,11.09
2018-04-09T03:47:31.551Z,10.68
2018-04-09T03:49:57.486Z,10.77
2018-04-09T03:52:23.434Z,10.67
2018-04-09T03:54:49.367Z,10.68
2018-04-09T03:57:15.306Z,10.34
2018-04-09T03:59:41.270Z,10.47
2018-04-09T04:02:07.222Z,10.71
2018-04-09T04:04:33.198Z,10.81
2018-04-09T04:06:59.140Z,10.69
2018-04-09T04:09:25.086Z,10.65
2018-04-09T04:11:51.032Z,10.84
2018-04-09T04:14:17.048Z,10.94
2018-04-09T04:16:43.086Z,11.14
2018-04-09T04:19:09.022Z,10.74
2018-04-09T04:21:34.941Z,11.02
2018-04-09T04:24:00.862Z,11.07
2018-04-09T04:26:26.800Z,10.77
2018-04-09T04:28:52.781Z,10.90
2018-04-09T04:31:18.718Z,10.42
2018-04-09T04:33:44.679Z,10.71
2018-04-09T04:36:10.613Z,10.64
2018-04-09T04:38:36.681Z,10.36
2018-04-09T04:41:02.602Z,10.28
2018-04-09T04:43:28.607Z,10.64
2018-04-09T04:45:54.594Z,10.81
2018-04-09T04:48:20.591Z,10.90
2018-04-09T04:50:46.547Z,10.74
2018-04-09T04:53:12.489Z,10.65
2018-04-09T04:55:38.663Z,10.93
2018-04-09T04:58:04.592Z,10.79
2018-04-09T05:00:30.521Z,11.10
2018-04-09T05:02:56.450Z,10.98
2018-04-09T05:05:22.452Z,10.90
2018-04-09T05:07:48.370Z,11.12
2018-04-09T05:10:14.317Z,11.20
2018-04-09T05:12:40.289Z,11.04
2018-04-09T05:15:06.232Z,11.10
2018-04-09T05:17:32.190Z,11.48
2018-04-09T05:19:58.126Z,11.37
2018-04-09T05:22:24.093Z,11.60
2018-04-09T05:24:50.042Z,11.81
2018-04-09T05:27:16.017Z,12.16
2018-04-09T05:29:42.040Z,12.35
2018-04-09T05:32:07.998Z,12.35
2018-04-09T05:34:33.947Z,12.32
2018-04-09T05:37:00.231Z,12.49
2018-04-09T05:39:26.161Z,12.63
2018-04-09T05:41:52.107Z,12.51
2018-04-09T05:44:18.094Z,12.77
2018-04-09T05:46:44.023Z,12.79
2018-04-09T05:49:10.001Z,12.83
2018-04-09T05:51:35.940Z,12.91
2018-04-09T05:54:01.917Z,13.17
2018-04-09T05:56:27.879Z,13.23
2018-04-09T05:58:53.809Z,13.03
2018-04-09T06:01:19.768Z,13.24
2018-04-09T06:03:45.707Z,13.44
2018-04-09T06:06:12.016Z,13.58
2018-04-09T06:08:37.973Z,13.65
2018-04-09T06:11:03.945Z,13.51
2018-04-09T06:13:29.863Z,13.44
2018-04-09T06:15:55.784Z,13.68
2018-04-09T06:18:21.779Z,13.94
2018-04-09T06:20:47.747Z,13.81
2018-04-09T06:23:13.723Z,13.78
2018-04-09T06:25:39.668Z,14.02
2018-04-09T06:28:06.033Z,13.94
2018-04-09T06:30:32.060Z,14.04
2018-04-09T06:32:58.053Z,14.09
2018-04-09T06:35:24.176Z,14.39
2018-04-09T06:37:50.156Z,14.44
2018-04-09T06:40:16.110Z,14.34
2018-04-09T06:42:42.376Z,14.37
2018-04-09T06:45:08.343Z,14.68
2018-04-09T06:47:34.275Z,14.73
2018-04-09T06:50:00.213Z,15.05
2018-04-09T06:52:26.173Z,15.26
2018-04-09T06:54:52.127Z,15.56
2018-04-09T06:57:18.118Z,15.63
2018-04-09T06:59:44.076Z,15.54
2018-04-09T07:02:09.994Z,15.49
2018-04-09T07:04:35.948Z,15.69
2018-04-09T07:07:01.883Z,15.88
2018-04-09T07:09:27.851Z,16.25
2018-04-09T07:11:53.774Z,16.24
2018-04-09T07:14:20.044Z,16.49
2018-04-09T07:16:46.005Z,16.68
2018-04-09T07:19:23.654Z,16.80
2018-04-09T07:21:49.589Z,16.97
2018-04-09T07:24:15.576Z,16.94
2018-04-09T07:26:41.502Z,17.03
2018-04-09T07:29:07.764Z,17.16
2018-04-09T07:31:33.809Z,17.10
2018-04-09T07:33:59.738Z,16.91
2018-04-09T07:36:25.694Z,16.96
2018-04-09T07:38:51.680Z,17.34
2018-04-09T07:41:17.625Z,17.59
2018-04-09T07:43:43.917Z,17.51
2018-04-09T07:46:09.869Z,17.61
2018-04-09T07:48:35.864Z,17.76
2018-04-09T07:51:01.802Z,18.00
2018-04-09T07:53:27.753Z,17.98
2018-04-09T07:55:53.713Z,17.98
2018-04-09T07:58:19.686Z,18.15
2018-04-09T08:00:45.638Z,18.22
2018-04-09T08:03:11.594Z,18.18
2018-04-09T08:05:37.526Z,18.04
2018-04-09T08:08:03.458Z,18.39
2018-04-09T08:10:29.434Z,18.78
2018-04-09T08:12:55.472Z,18.56
2018-04-09T08:15:21.426Z,18.31
2018-04-09T08:17:47.428Z,18.52
2018-04-09T08:20:13.412Z,18.52
2018-04-09T08:22:39.367Z,18.61
2018-04-09T08:25:05.292Z,18.65
2018-04-09T08:27:31.255Z,18.37
2018-04-09T08:29:57.241Z,18.06
2018-04-09T08:32:23.560Z,17.49
2018-04-09T08:34:49.607Z,17.39
2018-04-09T08:37:15.538Z,17.54
2018-04-09T08:39:41.471Z,17.59
2018-04-09T08:42:07.415Z,17.40
2018-04-09T08:44:33.361Z,17.41
2018-04-09T08:46:59.291Z,17.42
2018-04-09T08:49:25.240Z,17.44
2018-04-09T08:51:51.223Z,17.45
2018-04-09T08:54:17.155Z,17.48
2018-04-09T08:56:43.098Z,17.51
2018-04-09T08:59:09.039Z,17.47
2018-04-09T09:01:35.097Z,17.45
2018-04-09T09:04:01.017Z,17.52
2018-04-09T09:06:26.951Z,17.54
2018-04-09T09:08:53.001Z,17.56
2018-04-09T09:18:03.886Z,17.57
2018-04-09T09:20:29.842Z,17.54
2018-04-09T09:22:55.834Z,17.55
2018-04-09T09:25:21.956Z,17.58
2018-04-09T09:27:48.046Z,17.57
2018-04-09T09:30:13.991Z,17.56
2018-04-09T09:32:39.988Z,17.56
2018-04-09T09:35:05.996Z,17.67
2018-04-09T09:37:32.027Z,17.65
2018-04-09T09:39:57.968Z,17.60
2018-04-09T09:42:23.928Z,17.55
2018-04-09T09:44:49.898Z,17.48
2018-04-09T09:47:15.944Z,17.53
2018-04-09T09:49:41.886Z,17.49
2018-04-09T09:52:07.850Z,17.46
2018-04-09T09:54:33.794Z,17.50
2018-04-09T09:56:59.810Z,17.48
2018-04-09T09:59:25.742Z,17.59
2018-04-09T10:01:51.675Z,17.62
2018-04-09T10:04:17.619Z,17.64
2018-04-09T10:06:43.584Z,17.57
2018-04-09T10:09:09.579Z,17.52
2018-04-09T10:11:35.500Z,17.55
2018-04-09T10:14:01.468Z,17.55
2018-04-09T10:16:27.438Z,17.51
2018-04-09T10:18:53.444Z,17.51
2018-04-09T10:21:19.384Z,17.51
2018-04-09T10:23:45.371Z,17.54
2018-04-09T10:26:11.322Z,17.56
2018-04-09T10:28:37.335Z,17.52
2018-04-09T10:31:03.322Z,17.68
2018-04-09T10:33:29.275Z,17.53
2018-04-09T10:35:55.215Z,17.56
2018-04-09T10:38:21.176Z,17.58
2018-04-09T10:40:47.112Z,17.70
2018-04-09T10:43:13.041Z,17.71
2018-04-09T10:45:38.997Z,17.59
2018-04-09T10:48:04.943Z,17.70
2018-04-09T10:50:30.882Z,17.81
2018-04-09T10:52:56.850Z,17.80
2018-04-09T10:55:22.898Z,17.72
2018-04-09T10:57:48.853Z,17.68
2018-04-09T11:00:14.785Z,17.77
2018-04-09T11:02:40.731Z,17.78
2018-04-09T11:05:06.684Z,17.80
2018-04-09T11:07:32.634Z,17.79
2018-04-09T11:09:58.586Z,17.85
2018-04-09T11:12:24.548Z,17.95
2018-04-09T11:14:50.501Z,17.78
2018-04-09T11:17:16.429Z,17.88
2018-04-09T11:19:42.363Z,17.89
2018-04-09T11:22:08.286Z,17.87
2018-04-09T11:24:34.229Z,17.90
2018-04-09T11:27:00.167Z,18.06
2018-04-09T11:29:26.227Z,17.95
2018-04-09T11:31:52.166Z,17.88
2018-04-09T11:34:18.100Z,18.03
2018-04-09T11:36:44.056Z,18.12
2018-04-09T11:39:10.032Z,18.05
2018-04-09T11:41:36.096Z,18.03
2018-04-09T11:44:02.023Z,18.02
2018-04-09T11:46:27.944Z,17.97
2018-04-09T11:48:53.900Z,18.13
2018-04-09T11:51:19.846Z,18.08
2018-04-09T11:53:45.778Z,18.15
2018-04-09T11:56:11.782Z,18.11
2018-04-09T11:58:37.689Z,18.17
2018-04-09T12:01:03.625Z,18.19
2018-04-09T12:03:29.557Z,18.15
2018-04-09T12:05:55.504Z,18.07
2018-04-09T12:08:21.433Z,18.27
2018-04-09T12:10:47.461Z,18.06
2018-04-09T12:13:13.466Z,18.26
2018-04-09T12:15:39.497Z,18.25
2018-04-09T12:18:05.395Z,18.25
2018-04-09T12:20:31.352Z,18.23
2018-04-09T12:25:30.685Z,18.22
2018-04-09T12:27:56.645Z,18.34
2018-04-09T12:30:22.574Z,18.34
2018-04-09T12:32:48.544Z,18.29
2018-04-09T12:35:14.502Z,18.34
2018-04-09T12:37:40.568Z,18.35
2018-04-09T12:40:06.517Z,18.40
2018-04-09T12:42:32.512Z,18.45
2018-04-09T12:44:58.438Z,18.37
2018-04-09T12:47:24.441Z,18.68
2018-04-09T12:49:50.411Z,18.45
2018-04-09T12:52:16.396Z,18.29
2018-04-09T12:54:42.316Z,18.42
2018-04-09T12:57:08.272Z,18.54
2018-04-09T12:59:34.216Z,18.48
2018-04-09T13:02:00.272Z,18.40
2018-04-09T13:04:26.226Z,18.20
2018-04-09T13:06:52.176Z,18.19
2018-04-09T13:09:18.167Z,18.28
2018-04-09T13:11:44.102Z,18.44
2018-04-09T13:14:10.087Z,18.72
2018-04-09T13:16:36.052Z,18.63
2018-04-09T13:19:02.113Z,18.55
2018-04-09T13:21:28.075Z,18.72
2018-04-09T13:23:54.149Z,18.80
2018-04-09T13:26:20.102Z,18.79
2018-04-09T13:28:46.136Z,18.84
2018-04-09T13:31:12.098Z,18.85
2018-04-09T13:33:38.104Z,18.94
2018-04-09T13:36:04.035Z,18.85
2018-04-09T13:38:30.012Z,19.01
2018-04-09T13:40:55.959Z,18.99
2018-04-09T13:43:21.937Z,18.94
2018-04-09T13:45:47.930Z,18.91
2018-04-09T13:48:13.884Z,18.95
2018-04-09T13:50:39.823Z,19.05
2018-04-09T13:53:05.753Z,19.05
2018-04-09T13:55:31.715Z,19.05
2018-04-09T13:57:57.668Z,18.77
2018-04-09T14:00:23.623Z,19.05
2018-04-09T14:02:49.562Z,18.92
2018-04-09T14:05:15.536Z,18.77
2018-04-09T14:07:41.491Z,18.93
2018-04-09T14:10:07.435Z,18.86
2018-04-09T14:12:33.455Z,18.92
2018-04-09T14:14:59.415Z,19.21
2018-04-09T14:17:25.387Z,19.14
2018-04-09T14:19:51.351Z,19.14
2018-04-09T14:22:17.292Z,19.12
2018-04-09T14:24:43.266Z,19.04
2018-04-09T14:27:09.197Z,19.11
2018-04-09T14:29:35.145Z,18.99
2018-04-09T14:32:01.089Z,18.97
2018-04-09T14:34:27.036Z,19.22
2018-04-09T14:36:52.990Z,19.36
2018-04-09T14:39:18.964Z,19.36
2018-04-09T14:41:44.923Z,19.24
2018-04-09T14:44:10.890Z,19.13
2018-04-09T14:46:36.852Z,19.16
2018-04-09T14:49:02.810Z,19.11
2018-04-09T14:51:28.809Z,19.16
2018-04-09T14:53:54.742Z,19.00
2018-04-09T14:56:20.713Z,18.82
2018-04-09T14:58:46.659Z,18.88
2018-04-09T15:01:12.784Z,19.06
2018-04-09T15:03:38.746Z,19.05
2018-04-09T15:06:04.679Z,19.58
2018-04-09T15:08:30.597Z,19.45
2018-04-09T15:10:56.540Z,19.36
2018-04-09T15:13:22.468Z,19.30
2018-04-09T15:15:48.429Z,19.39
2018-04-09T15:18:14.458Z,19.43
2018-04-09T15:20:40.440Z,19.49
2018-04-09T15:23:06.405Z,19.29
2018-04-09T15:25:32.368Z,19.40
2018-04-09T15:27:58.384Z,19.62
2018-04-09T15:30:24.355Z,19.38
2018-04-09T15:32:50.330Z,19.57
2018-04-09T15:35:16.274Z,19.65
2018-04-09T15:37:42.265Z,19.77
2018-04-09T15:40:08.193Z,19.78
2018-04-09T15:42:34.403Z,19.60
2018-04-09T15:45:00.364Z,19.73
2018-04-09T15:47:26.315Z,20.08
2018-04-09T15:49:52.261Z,19.99
2018-04-09T15:52:18.199Z,19.94
2018-04-09T15:54:44.259Z,19.89
2018-04-09T15:57:10.172Z,19.71
2018-04-09T15:59:36.138Z,19.66
2018-04-09T16:02:02.076Z,19.70
2018-04-09T16:04:28.144Z,19.74
2018-04-09T16:06:54.117Z,19.55
2018-04-09T16:09:20.062Z,19.60
2018-04-09T16:11:45.984Z,19.54
2018-04-09T16:14:11.911Z,19.46
2018-04-09T16:16:37.841Z,19.47
2018-04-09T16:19:03.782Z,19.46
2018-04-09T16:21:29.733Z,19.34
2018-04-09T16:23:55.665Z,19.33
2018-04-09T16:26:21.638Z,19.29
2018-04-09T16:28:47.593Z,19.21
2018-04-09T16:31:13.555Z,19.19
2018-04-09T16:33:39.571Z,19.39
2018-04-09T16:36:05.597Z,19.27
2018-04-09T16:38:31.567Z,19.26
2018-04-09T16:40:57.499Z,19.23
2018-04-09T16:43:23.469Z,19.17
2018-04-09T16:45:49.471Z,19.14
2018-04-09T16:48:15.425Z,19.10
2018-04-09T16:50:41.501Z,19.11
2018-04-09T16:53:07.596Z,19.09
2018-04-09T16:55:33.608Z,19.06
2018-04-09T16:57:59.654Z,19.05
2018-04-09T17:00:25.667Z,18.96
2018-04-09T17:02:51.632Z,18.93
2018-04-09T17:05:17.584Z,18.96
2018-04-09T17:07:43.646Z,18.93
2018-04-09T17:10:09.640Z,18.94
2018-04-09T17:12:35.594Z,18.92
2018-04-09T17:15:01.585Z,18.88
2018-04-09T17:17:27.647Z,18.83
2018-04-09T17:19:53.673Z,18.79
2018-04-09T17:22:19.711Z,18.77
2018-04-09T17:24:45.660Z,18.76
2018-04-09T17:27:11.585Z,18.80
2018-04-09T17:29:37.666Z,18.83
2018-04-09T17:32:03.632Z,18.82
2018-04-09T17:34:29.590Z,18.84
2018-04-09T17:36:55.526Z,18.80
2018-04-09T17:39:21.480Z,18.76
2018-04-09T17:41:47.468Z,18.72
2018-04-09T17:44:13.461Z,18.74
2018-04-09T17:46:39.478Z,18.70
2018-04-09T17:49:05.544Z,18.68
2018-04-09T17:51:31.500Z,18.65
2018-04-09T17:53:57.448Z,18.65
2018-04-09T17:56:23.488Z,18.62
2018-04-09T17:58:49.418Z,18.61
2018-04-09T18:01:15.352Z,18.60
2018-04-09T18:03:41.320Z,18.60
2018-04-09T18:06:07.340Z,18.58
2018-04-09T18:08:33.279Z,18.57
2018-04-09T18:10:59.201Z,18.55
2018-04-09T18:13:25.134Z,18.55
2018-04-09T18:15:51.078Z,18.54
2018-04-09T18:18:17.036Z,18.54
2018-04-09T18:20:42.989Z,18.50
2018-04-09T18:23:08.940Z,18.48
2018-04-09T18:25:34.962Z,18.47
2018-04-09T18:28:00.947Z,18.46
2018-04-09T18:30:26.911Z,18.43
2018-04-09T18:32:52.881Z,18.45
2018-04-09T18:35:18.818Z,18.45
2018-04-09T18:37:44.796Z,18.35
2018-04-09T18:40:10.795Z,18.38
2018-04-09T18:42:36.739Z,18.37
2018-04-09T18:45:02.740Z,18.37
2018-04-09T18:47:28.686Z,18.29
2018-04-09T18:49:54.624Z,18.29
2018-04-09T18:52:20.548Z,18.27
2018-04-09T18:54:46.570Z,18.22
2018-04-09T18:57:12.520Z,18.25
2018-04-09T18:59:38.469Z,18.27
2018-04-09T19:02:04.487Z,18.27
2018-04-09T19:04:30.392Z,18.21
2018-04-09T19:06:56.357Z,18.16
2018-04-09T19:09:22.290Z,18.19
2018-04-09T19:11:48.228Z,18.12
2018-04-09T19:14:14.176Z,18.07
2018-04-09T19:16:40.168Z,18.06
2018-04-09T19:19:06.139Z,18.05
2018-04-09T19:21:32.187Z,17.97
2018-04-09T19:23:58.171Z,17.90
2018-04-09T19:26:24.212Z,17.90
2018-04-09T19:28:50.165Z,17.93
2018-04-09T19:31:16.109Z,17.83
2018-04-09T19:33:42.130Z,17.87
2018-04-09T19:36:08.065Z,17.84
2018-04-09T19:38:34.051Z,17.89
2018-04-09T19:40:59.997Z,17.82
2018-04-09T19:43:25.959Z,17.69
2018-04-09T19:45:51.950Z,17.65
2018-04-09T19:48:17.913Z,17.72
2018-04-09T19:50:43.875Z,17.76
2018-04-09T19:53:09.879Z,17.78
2018-04-09T19:55:35.805Z,17.83
2018-04-09T19:58:01.773Z,17.77
2018-04-09T20:00:27.717Z,17.77
2018-04-09T20:02:53.665Z,17.65
2018-04-09T20:05:19.727Z,17.67
2018-04-09T20:07:45.681Z,17.70
2018-04-09T20:10:11.635Z,17.75
2018-04-09T20:12:37.680Z,17.74
2018-04-09T20:15:03.630Z,17.47
2018-04-09T20:17:29.560Z,17.42
2018-04-09T20:19:55.506Z,17.58
2018-04-09T20:22:21.445Z,17.64
2018-04-09T20:24:47.406Z,17.61
2018-04-09T20:27:13.372Z,17.66
2018-04-09T20:29:39.439Z,17.60
2018-04-09T20:32:05.393Z,17.65
2018-04-09T20:34:31.408Z,17.67
2018-04-09T20:36:57.356Z,17.78
2018-04-09T20:39:23.444Z,17.68
2018-04-09T20:41:49.446Z,17.74
2018-04-09T20:44:15.390Z,17.59
2018-04-09T20:46:41.320Z,17.64
2018-04-09T20:49:07.264Z,17.56
2018-04-09T20:51:33.245Z,17.60
2018-04-09T20:53:59.200Z,17.44
2018-04-09T20:56:25.168Z,17.40
2018-04-09T20:58:51.121Z,17.42
2018-04-09T21:01:17.061Z,17.51
2018-04-09T21:03:42.980Z,17.56
2018-04-09T21:06:08.952Z,17.38
2018-04-09T21:08:34.904Z,17.45
2018-04-09T21:11:00.868Z,17.27
2018-04-09T21:13:26.814Z,17.20
2018-04-09T21:15:52.770Z,17.18
2018-04-09T21:18:18.724Z,17.26
2018-04-09T21:20:44.644Z,17.28
2018-04-09T21:23:10.580Z,16.96
2018-04-09T21:25:36.538Z,16.94
2018-04-09T21:28:02.500Z,17.03
2018-04-09T21:30:28.452Z,16.91
2018-04-09T21:32:54.396Z,16.75
2018-04-09T21:35:20.320Z,16.44
2018-04-09T21:37:46.252Z,16.55
2018-04-09T21:40:12.200Z,16.72
2018-04-09T21:42:38.139Z,16.80
2018-04-09T21:45:04.104Z,16.49
2018-04-09T21:47:30.050Z,16.57
2018-04-09T21:49:55.996Z,16.70
2018-04-09T21:52:21.965Z,16.55
2018-04-09T21:54:47.898Z,16.67
2018-04-09T21:57:13.842Z,16.66
2018-04-09T21:59:39.791Z,16.60
2018-04-09T22:02:05.732Z,16.72
2018-04-09T22:04:31.688Z,16.63
2018-04-09T22:06:57.616Z,16.47
2018-04-09T22:09:23.561Z,16.44
2018-04-09T22:11:49.508Z,16.47
2018-04-09T22:14:15.436Z,16.41
2018-04-09T22:16:41.399Z,16.50
2018-04-09T22:19:07.330Z,16.51
2018-04-09T22:21:33.290Z,16.34
2018-04-09T22:23:59.224Z,16.54
2018-04-09T22:26:25.180Z,16.30
2018-04-09T22:28:51.130Z,16.34
2018-04-09T22:31:17.073Z,16.26
2018-04-09T22:33:43.002Z,16.25
2018-04-09T22:36:08.927Z,16.34
2018-04-09T22:38:34.894Z,16.48
2018-04-09T22:41:00.860Z,16.15
2018-04-09T22:43:26.823Z,16.08
2018-04-09T22:45:52.773Z,15.96
2018-04-09T22:48:18.697Z,16.19
2018-04-09T22:50:44.632Z,16.08
2018-04-09T22:53:10.567Z,16.16
2018-04-09T22:55:36.529Z,15.83
2018-04-09T22:58:02.472Z,15.68
2018-04-09T23:00:28.412Z,15.92
2018-04-09T23:02:54.372Z,16.01
2018-04-09T23:05:20.321Z,15.90
2018-04-09T23:07:46.280Z,15.81
2018-04-09T23:10:12.260Z,15.90
2018-04-09T23:12:38.212Z,15.74
2018-04-09T23:15:04.142Z,15.70
2018-04-09T23:17:30.126Z,15.82
2018-04-09T23:19:56.055Z,15.76
2018-04-09T23:22:21.990Z,15.82
2018-04-09T23:24:47.948Z,15.70
2018-04-09T23:27:13.900Z,15.37
2018-04-09T23:29:39.872Z,15.62
2018-04-09T23:32:05.804Z,15.63
2018-04-09T23:34:31.776Z,15.55
2018-04-09T23:36:57.709Z,15.51
2018-04-09T23:39:23.646Z,15.49
2018-04-09T23:41:49.629Z,15.37
2018-04-09T23:44:15.580Z,15.50
2018-04-09T23:46:41.523Z,15.52
2018-04-09T23:49:07.473Z,15.46
2018-04-09T23:51:33.425Z,15.54
2018-04-09T23:53:59.352Z,15.42
2018-04-09T23:56:25.328Z,15.60
2018-04-09T23:58:51.315Z,15.19
